sensor_id;sensor_type;location;lat;lon;timestamp;temperature;humidity
62575;DHT22;53112;45.602;11.904;2022-07-05T00:00:45;27.20;52.30
62575;DHT22;53112;45.602;11.904;2022-07-05T00:03:12;27.10;52.20
62575;DHT22;53112;45.602;11.904;2022-07-05T00:05:39;26.80;53.10
62575;DHT22;53112;45.602;11.904;2022-07-05T00:08:05;26.80;53.40
62575;DHT22;53112;45.602;11.904;2022-07-05T00:10:33;26.70;53.10
62575;DHT22;53112;45.602;11.904;2022-07-05T00:12:59;26.60;54.00
62575;DHT22;53112;45.602;11.904;2022-07-05T00:15:25;26.30;55.10
62575;DHT22;53112;45.602;11.904;2022-07-05T00:17:51;26.20;55.80
62575;DHT22;53112;45.602;11.904;2022-07-05T00:20:18;26.20;55.80
62575;DHT22;53112;45.602;11.904;2022-07-05T00:22:44;26.10;55.70
62575;DHT22;53112;45.602;11.904;2022-07-05T00:25:10;26.20;54.80
62575;DHT22;53112;45.602;11.904;2022-07-05T00:27:36;26.30;54.20
62575;DHT22;53112;45.602;11.904;2022-07-05T00:30:04;26.40;54.20
62575;DHT22;53112;45.602;11.904;2022-07-05T00:32:30;26.50;53.70
62575;DHT22;53112;45.602;11.904;2022-07-05T00:34:56;26.50;53.90
62575;DHT22;53112;45.602;11.904;2022-07-05T00:37:22;26.10;55.80
62575;DHT22;53112;45.602;11.904;2022-07-05T00:39:48;26.00;56.20
62575;DHT22;53112;45.602;11.904;2022-07-05T00:42:14;26.00;56.00
62575;DHT22;53112;45.602;11.904;2022-07-05T00:44:41;26.10;55.40
62575;DHT22;53112;45.602;11.904;2022-07-05T00:47:10;26.10;55.60
62575;DHT22;53112;45.602;11.904;2022-07-05T00:49:37;26.10;55.80
62575;DHT22;53112;45.602;11.904;2022-07-05T00:52:05;26.00;56.10
62575;DHT22;53112;45.602;11.904;2022-07-05T00:54:34;26.00;56.10
62575;DHT22;53112;45.602;11.904;2022-07-05T00:57:01;26.00;56.40
62575;DHT22;53112;45.602;11.904;2022-07-05T00:59:28;25.90;56.40
62575;DHT22;53112;45.602;11.904;2022-07-05T01:01:54;25.90;56.20
62575;DHT22;53112;45.602;11.904;2022-07-05T01:04:21;25.90;56.60
62575;DHT22;53112;45.602;11.904;2022-07-05T01:06:49;25.80;56.60
62575;DHT22;53112;45.602;11.904;2022-07-05T01:09:18;25.90;56.10
62575;DHT22;53112;45.602;11.904;2022-07-05T01:11:46;25.90;56.20
62575;DHT22;53112;45.602;11.904;2022-07-05T01:14:16;25.90;56.40
62575;DHT22;53112;45.602;11.904;2022-07-05T01:16:42;25.80;57.40
62575;DHT22;53112;45.602;11.904;2022-07-05T01:19:10;25.60;57.30
62575;DHT22;53112;45.602;11.904;2022-07-05T01:21:40;25.70;57.00
62575;DHT22;53112;45.602;11.904;2022-07-05T01:24:08;25.80;56.70
62575;DHT22;53112;45.602;11.904;2022-07-05T01:26:34;25.70;56.90
62575;DHT22;53112;45.602;11.904;2022-07-05T01:29:01;25.60;57.30
62575;DHT22;53112;45.602;11.904;2022-07-05T01:31:27;25.40;57.70
62575;DHT22;53112;45.602;11.904;2022-07-05T01:33:53;25.50;57.10
62575;DHT22;53112;45.602;11.904;2022-07-05T01:36:19;25.50;56.60
62575;DHT22;53112;45.602;11.904;2022-07-05T01:38:46;25.50;56.80
62575;DHT22;53112;45.602;11.904;2022-07-05T01:41:12;25.40;57.40
62575;DHT22;53112;45.602;11.904;2022-07-05T01:43:39;25.40;57.00
62575;DHT22;53112;45.602;11.904;2022-07-05T01:46:05;25.40;56.50
62575;DHT22;53112;45.602;11.904;2022-07-05T01:48:33;25.40;56.40
62575;DHT22;53112;45.602;11.904;2022-07-05T01:51:05;25.30;56.10
62575;DHT22;53112;45.602;11.904;2022-07-05T01:53:32;25.30;56.50
62575;DHT22;53112;45.602;11.904;2022-07-05T01:56:02;25.10;56.60
62575;DHT22;53112;45.602;11.904;2022-07-05T01:58:30;25.10;56.70
62575;DHT22;53112;45.602;11.904;2022-07-05T02:00:57;24.90;58.20
62575;DHT22;53112;45.602;11.904;2022-07-05T02:03:25;24.80;59.40
62575;DHT22;53112;45.602;11.904;2022-07-05T02:05:52;24.70;59.20
62575;DHT22;53112;45.602;11.904;2022-07-05T02:08:19;24.80;58.50
62575;DHT22;53112;45.602;11.904;2022-07-05T02:10:46;24.80;58.40
62575;DHT22;53112;45.602;11.904;2022-07-05T02:13:12;24.80;58.60
62575;DHT22;53112;45.602;11.904;2022-07-05T02:15:40;24.90;58.60
62575;DHT22;53112;45.602;11.904;2022-07-05T02:18:07;24.80;59.00
62575;DHT22;53112;45.602;11.904;2022-07-05T02:20:34;24.80;59.00
62575;DHT22;53112;45.602;11.904;2022-07-05T02:23:00;24.80;58.60
62575;DHT22;53112;45.602;11.904;2022-07-05T02:25:26;24.80;58.00
62575;DHT22;53112;45.602;11.904;2022-07-05T02:27:53;24.70;58.30
62575;DHT22;53112;45.602;11.904;2022-07-05T02:30:19;24.80;58.10
62575;DHT22;53112;45.602;11.904;2022-07-05T02:32:46;24.70;58.50
62575;DHT22;53112;45.602;11.904;2022-07-05T02:35:12;24.70;58.70
62575;DHT22;53112;45.602;11.904;2022-07-05T02:37:39;24.60;59.50
62575;DHT22;53112;45.602;11.904;2022-07-05T02:40:10;24.60;59.20
62575;DHT22;53112;45.602;11.904;2022-07-05T02:42:37;24.40;60.40
62575;DHT22;53112;45.602;11.904;2022-07-05T02:45:04;24.40;60.10
62575;DHT22;53112;45.602;11.904;2022-07-05T02:47:32;24.50;59.20
62575;DHT22;53112;45.602;11.904;2022-07-05T02:49:59;24.50;59.20
62575;DHT22;53112;45.602;11.904;2022-07-05T02:52:28;24.40;59.20
62575;DHT22;53112;45.602;11.904;2022-07-05T02:54:54;24.20;60.80
62575;DHT22;53112;45.602;11.904;2022-07-05T02:57:20;24.20;59.90
62575;DHT22;53112;45.602;11.904;2022-07-05T02:59:46;24.30;60.00
62575;DHT22;53112;45.602;11.904;2022-07-05T03:02:12;24.20;60.10
62575;DHT22;53112;45.602;11.904;2022-07-05T03:04:38;24.10;60.00
62575;DHT22;53112;45.602;11.904;2022-07-05T03:10:26;24.10;60.00
62575;DHT22;53112;45.602;11.904;2022-07-05T03:12:51;23.90;59.80
62575;DHT22;53112;45.602;11.904;2022-07-05T03:15:18;24.00;59.60
62575;DHT22;53112;45.602;11.904;2022-07-05T03:17:44;24.10;60.00
62575;DHT22;53112;45.602;11.904;2022-07-05T03:20:10;24.10;60.10
62575;DHT22;53112;45.602;11.904;2022-07-05T03:22:36;24.00;60.90
62575;DHT22;53112;45.602;11.904;2022-07-05T03:25:02;24.00;59.90
62575;DHT22;53112;45.602;11.904;2022-07-05T03:27:28;24.10;59.40
62575;DHT22;53112;45.602;11.904;2022-07-05T03:29:54;24.10;59.80
62575;DHT22;53112;45.602;11.904;2022-07-05T03:32:20;23.90;60.90
62575;DHT22;53112;45.602;11.904;2022-07-05T03:34:46;23.90;60.80
62575;DHT22;53112;45.602;11.904;2022-07-05T03:37:12;24.00;60.80
62575;DHT22;53112;45.602;11.904;2022-07-05T03:39:38;23.90;61.60
62575;DHT22;53112;45.602;11.904;2022-07-05T03:42:04;23.70;63.90
62575;DHT22;53112;45.602;11.904;2022-07-05T03:44:30;23.50;64.70
62575;DHT22;53112;45.602;11.904;2022-07-05T03:46:59;23.50;64.20
62575;DHT22;53112;45.602;11.904;2022-07-05T03:49:25;23.60;63.70
62575;DHT22;53112;45.602;11.904;2022-07-05T03:51:51;23.70;64.20
62575;DHT22;53112;45.602;11.904;2022-07-05T03:54:17;23.70;64.60
62575;DHT22;53112;45.602;11.904;2022-07-05T03:56:43;23.70;64.60
62575;DHT22;53112;45.602;11.904;2022-07-05T03:59:09;23.90;63.30
62575;DHT22;53112;45.602;11.904;2022-07-05T04:01:35;24.10;62.80
62575;DHT22;53112;45.602;11.904;2022-07-05T04:04:01;24.10;62.20
62575;DHT22;53112;45.602;11.904;2022-07-05T04:06:27;24.20;63.30
62575;DHT22;53112;45.602;11.904;2022-07-05T04:08:53;24.30;63.50
62575;DHT22;53112;45.602;11.904;2022-07-05T04:11:19;24.30;62.50
62575;DHT22;53112;45.602;11.904;2022-07-05T04:13:46;24.40;62.90
62575;DHT22;53112;45.602;11.904;2022-07-05T04:16:11;24.40;63.60
62575;DHT22;53112;45.602;11.904;2022-07-05T04:18:38;24.40;63.20
62575;DHT22;53112;45.602;11.904;2022-07-05T04:21:04;24.50;62.90
62575;DHT22;53112;45.602;11.904;2022-07-05T04:23:30;24.80;61.80
62575;DHT22;53112;45.602;11.904;2022-07-05T04:25:56;25.00;61.60
62575;DHT22;53112;45.602;11.904;2022-07-05T04:28:22;25.10;62.50
62575;DHT22;53112;45.602;11.904;2022-07-05T04:30:48;25.10;62.50
62575;DHT22;53112;45.602;11.904;2022-07-05T04:33:14;25.40;61.50
62575;DHT22;53112;45.602;11.904;2022-07-05T04:35:40;25.60;60.70
62575;DHT22;53112;45.602;11.904;2022-07-05T04:38:06;25.60;60.80
62575;DHT22;53112;45.602;11.904;2022-07-05T04:40:32;25.70;59.90
62575;DHT22;53112;45.602;11.904;2022-07-05T04:42:58;25.80;59.90
62575;DHT22;53112;45.602;11.904;2022-07-05T04:45:24;26.00;59.40
62575;DHT22;53112;45.602;11.904;2022-07-05T04:47:50;26.10;59.10
62575;DHT22;53112;45.602;11.904;2022-07-05T04:50:16;26.10;59.10
62575;DHT22;53112;45.602;11.904;2022-07-05T04:52:42;26.20;59.00
62575;DHT22;53112;45.602;11.904;2022-07-05T04:55:08;26.40;58.50
62575;DHT22;53112;45.602;11.904;2022-07-05T04:57:41;26.50;58.20
62575;DHT22;53112;45.602;11.904;2022-07-05T05:00:10;26.70;57.20
62575;DHT22;53112;45.602;11.904;2022-07-05T05:02:36;27.00;56.70
62575;DHT22;53112;45.602;11.904;2022-07-05T05:05:03;27.00;56.50
62575;DHT22;53112;45.602;11.904;2022-07-05T05:07:29;27.10;55.90
62575;DHT22;53112;45.602;11.904;2022-07-05T05:09:55;27.30;55.50
62575;DHT22;53112;45.602;11.904;2022-07-05T05:12:21;27.40;54.70
62575;DHT22;53112;45.602;11.904;2022-07-05T05:14:49;27.40;54.60
62575;DHT22;53112;45.602;11.904;2022-07-05T05:17:15;27.60;53.90
62575;DHT22;53112;45.602;11.904;2022-07-05T05:19:41;27.70;53.60
62575;DHT22;53112;45.602;11.904;2022-07-05T05:22:07;27.70;53.60
62575;DHT22;53112;45.602;11.904;2022-07-05T05:24:33;27.80;52.80
62575;DHT22;53112;45.602;11.904;2022-07-05T05:27:01;28.10;52.40
62575;DHT22;53112;45.602;11.904;2022-07-05T05:29:27;28.40;51.80
62575;DHT22;53112;45.602;11.904;2022-07-05T05:31:53;28.50;50.80
62575;DHT22;53112;45.602;11.904;2022-07-05T05:34:20;28.50;50.80
62575;DHT22;53112;45.602;11.904;2022-07-05T05:36:45;28.60;50.30
62575;DHT22;53112;45.602;11.904;2022-07-05T05:39:13;28.30;50.80
62575;DHT22;53112;45.602;11.904;2022-07-05T05:41:39;28.40;50.80
62575;DHT22;53112;45.602;11.904;2022-07-05T05:44:05;28.60;50.70
62575;DHT22;53112;45.602;11.904;2022-07-05T05:46:31;28.60;50.30
62575;DHT22;53112;45.602;11.904;2022-07-05T05:48:57;29.00;49.70
62575;DHT22;53112;45.602;11.904;2022-07-05T05:51:24;29.30;48.40
62575;DHT22;53112;45.602;11.904;2022-07-05T05:53:50;29.50;48.30
62575;DHT22;53112;45.602;11.904;2022-07-05T05:56:16;29.90;47.10
62575;DHT22;53112;45.602;11.904;2022-07-05T05:58:42;30.30;46.30
62575;DHT22;53112;45.602;11.904;2022-07-05T06:01:08;30.50;44.80
62575;DHT22;53112;45.602;11.904;2022-07-05T06:03:34;30.30;43.10
62575;DHT22;53112;45.602;11.904;2022-07-05T06:06:00;30.40;44.10
62575;DHT22;53112;45.602;11.904;2022-07-05T06:08:26;30.10;44.10
62575;DHT22;53112;45.602;11.904;2022-07-05T06:10:52;30.00;44.60
62575;DHT22;53112;45.602;11.904;2022-07-05T06:13:18;30.10;44.10
62575;DHT22;53112;45.602;11.904;2022-07-05T06:15:44;30.20;43.80
62575;DHT22;53112;45.602;11.904;2022-07-05T06:18:11;30.50;43.70
62575;DHT22;53112;45.602;11.904;2022-07-05T06:20:39;30.90;43.10
62575;DHT22;53112;45.602;11.904;2022-07-05T06:23:06;31.20;42.70
62575;DHT22;53112;45.602;11.904;2022-07-05T06:25:33;31.40;41.50
62575;DHT22;53112;45.602;11.904;2022-07-05T06:28:04;31.50;42.10
62575;DHT22;53112;45.602;11.904;2022-07-05T06:30:32;31.50;41.90
62575;DHT22;53112;45.602;11.904;2022-07-05T06:32:59;31.60;41.90
62575;DHT22;53112;45.602;11.904;2022-07-05T06:35:25;31.50;41.90
62575;DHT22;53112;45.602;11.904;2022-07-05T06:40:28;31.60;42.20
62575;DHT22;53112;45.602;11.904;2022-07-05T06:42:57;31.60;41.90
62575;DHT22;53112;45.602;11.904;2022-07-05T06:45:24;31.70;41.70
62575;DHT22;53112;45.602;11.904;2022-07-05T06:48:00;31.40;41.90
62575;DHT22;53112;45.602;11.904;2022-07-05T06:50:29;31.10;42.80
62575;DHT22;53112;45.602;11.904;2022-07-05T06:52:55;31.20;42.70
62575;DHT22;53112;45.602;11.904;2022-07-05T06:55:22;31.30;42.60
62575;DHT22;53112;45.602;11.904;2022-07-05T06:57:48;31.10;42.80
62575;DHT22;53112;45.602;11.904;2022-07-05T07:00:15;31.20;42.90
62575;DHT22;53112;45.602;11.904;2022-07-05T07:02:41;31.20;42.80
62575;DHT22;53112;45.602;11.904;2022-07-05T07:05:08;31.10;42.60
62575;DHT22;53112;45.602;11.904;2022-07-05T07:07:34;31.10;42.90
62575;DHT22;53112;45.602;11.904;2022-07-05T07:10:19;30.80;43.60
62575;DHT22;53112;45.602;11.904;2022-07-05T07:12:45;31.10;43.10
62575;DHT22;53112;45.602;11.904;2022-07-05T07:15:11;31.00;42.80
62575;DHT22;53112;45.602;11.904;2022-07-05T07:17:37;31.00;42.90
62575;DHT22;53112;45.602;11.904;2022-07-05T07:20:03;31.00;42.50
62575;DHT22;53112;45.602;11.904;2022-07-05T07:22:29;31.10;42.90
62575;DHT22;53112;45.602;11.904;2022-07-05T07:24:55;31.70;41.30
62575;DHT22;53112;45.602;11.904;2022-07-05T07:27:21;32.20;39.30
62575;DHT22;53112;45.602;11.904;2022-07-05T07:29:47;33.10;38.60
62575;DHT22;53112;45.602;11.904;2022-07-05T07:32:13;33.30;38.30
62575;DHT22;53112;45.602;11.904;2022-07-05T07:34:39;33.40;37.50
62575;DHT22;53112;45.602;11.904;2022-07-05T07:37:06;33.00;38.60
62575;DHT22;53112;45.602;11.904;2022-07-05T07:39:34;33.10;37.60
62575;DHT22;53112;45.602;11.904;2022-07-05T07:42:01;34.10;36.90
62575;DHT22;53112;45.602;11.904;2022-07-05T07:44:27;34.50;36.10
62575;DHT22;53112;45.602;11.904;2022-07-05T07:46:53;34.50;35.80
62575;DHT22;53112;45.602;11.904;2022-07-05T07:49:22;35.00;35.30
62575;DHT22;53112;45.602;11.904;2022-07-05T07:51:48;34.20;35.30
62575;DHT22;53112;45.602;11.904;2022-07-05T07:54:14;34.10;35.90
62575;DHT22;53112;45.602;11.904;2022-07-05T07:56:41;34.10;36.00
62575;DHT22;53112;45.602;11.904;2022-07-05T07:59:07;33.60;36.60
62575;DHT22;53112;45.602;11.904;2022-07-05T08:01:33;33.50;37.20
62575;DHT22;53112;45.602;11.904;2022-07-05T08:03:59;33.90;37.00
62575;DHT22;53112;45.602;11.904;2022-07-05T08:06:25;33.90;36.80
62575;DHT22;53112;45.602;11.904;2022-07-05T08:08:51;34.20;36.00
62575;DHT22;53112;45.602;11.904;2022-07-05T08:11:17;34.20;35.70
62575;DHT22;53112;45.602;11.904;2022-07-05T08:13:43;34.90;34.90
62575;DHT22;53112;45.602;11.904;2022-07-05T08:16:10;35.40;33.10
62575;DHT22;53112;45.602;11.904;2022-07-05T08:18:36;35.40;32.40
62575;DHT22;53112;45.602;11.904;2022-07-05T08:21:21;36.30;32.20
62575;DHT22;53112;45.602;11.904;2022-07-05T08:24:08;37.40;31.00
62575;DHT22;53112;45.602;11.904;2022-07-05T08:26:36;37.40;30.30
62575;DHT22;53112;45.602;11.904;2022-07-05T08:29:06;37.70;29.80
62575;DHT22;53112;45.602;11.904;2022-07-05T08:31:36;38.30;29.40
62575;DHT22;53112;45.602;11.904;2022-07-05T08:34:02;39.00;27.80
62575;DHT22;53112;45.602;11.904;2022-07-05T08:36:29;38.80;28.00
62575;DHT22;53112;45.602;11.904;2022-07-05T08:38:55;39.20;27.90
62575;DHT22;53112;45.602;11.904;2022-07-05T08:41:22;38.20;29.00
62575;DHT22;53112;45.602;11.904;2022-07-05T08:43:49;37.80;29.70
62575;DHT22;53112;45.602;11.904;2022-07-05T08:46:18;37.50;29.80
62575;DHT22;53112;45.602;11.904;2022-07-05T08:48:50;37.70;29.80
62575;DHT22;53112;45.602;11.904;2022-07-05T08:51:21;37.90;29.70
62575;DHT22;53112;45.602;11.904;2022-07-05T08:53:49;38.50;28.30
62575;DHT22;53112;45.602;11.904;2022-07-05T08:56:16;38.80;28.50
62575;DHT22;53112;45.602;11.904;2022-07-05T08:58:42;39.50;27.80
62575;DHT22;53112;45.602;11.904;2022-07-05T09:01:10;40.10;26.60
62575;DHT22;53112;45.602;11.904;2022-07-05T09:03:43;40.00;26.10
62575;DHT22;53112;45.602;11.904;2022-07-05T09:06:11;40.50;26.30
62575;DHT22;53112;45.602;11.904;2022-07-05T09:08:39;40.30;26.20
62575;DHT22;53112;45.602;11.904;2022-07-05T09:11:15;40.40;26.20
62575;DHT22;53112;45.602;11.904;2022-07-05T09:13:49;41.10;25.60
62575;DHT22;53112;45.602;11.904;2022-07-05T09:16:17;41.10;25.60
62575;DHT22;53112;45.602;11.904;2022-07-05T09:18:51;41.40;25.30
62575;DHT22;53112;45.602;11.904;2022-07-05T09:21:18;42.20;24.30
62575;DHT22;53112;45.602;11.904;2022-07-05T09:26:47;39.70;26.40
62575;DHT22;53112;45.602;11.904;2022-07-05T09:29:21;40.60;25.80
62575;DHT22;53112;45.602;11.904;2022-07-05T09:31:48;42.10;24.80
62575;DHT22;53112;45.602;11.904;2022-07-05T09:34:19;42.50;24.30
62575;DHT22;53112;45.602;11.904;2022-07-05T09:36:55;43.10;23.30
62575;DHT22;53112;45.602;11.904;2022-07-05T09:44:45;44.10;21.70
62575;DHT22;53112;45.602;11.904;2022-07-05T09:47:12;43.60;23.20
62575;DHT22;53112;45.602;11.904;2022-07-05T09:52:30;44.00;22.00
62575;DHT22;53112;45.602;11.904;2022-07-05T09:55:07;43.40;22.90
62575;DHT22;53112;45.602;11.904;2022-07-05T09:57:36;43.00;23.10
62575;DHT22;53112;45.602;11.904;2022-07-05T10:00:13;43.40;22.30
62575;DHT22;53112;45.602;11.904;2022-07-05T10:02:47;44.40;22.20
62575;DHT22;53112;45.602;11.904;2022-07-05T10:05:25;45.10;21.30
62575;DHT22;53112;45.602;11.904;2022-07-05T10:07:53;44.40;21.10
62575;DHT22;53112;45.602;11.904;2022-07-05T10:10:38;45.10;21.00
62575;DHT22;53112;45.602;11.904;2022-07-05T10:13:05;45.50;20.90
62575;DHT22;53112;45.602;11.904;2022-07-05T10:15:35;44.80;21.00
62575;DHT22;53112;45.602;11.904;2022-07-05T10:18:07;45.20;21.00
62575;DHT22;53112;45.602;11.904;2022-07-05T10:20:45;45.20;20.70
62575;DHT22;53112;45.602;11.904;2022-07-05T10:23:16;46.50;19.80
62575;DHT22;53112;45.602;11.904;2022-07-05T10:25:45;47.50;18.30
62575;DHT22;53112;45.602;11.904;2022-07-05T10:28:15;47.60;17.60
62575;DHT22;53112;45.602;11.904;2022-07-05T10:30:41;47.30;18.10
62575;DHT22;53112;45.602;11.904;2022-07-05T10:33:10;47.40;18.30
62575;DHT22;53112;45.602;11.904;2022-07-05T10:35:38;47.70;18.10
62575;DHT22;53112;45.602;11.904;2022-07-05T10:38:04;47.60;17.90
62575;DHT22;53112;45.602;11.904;2022-07-05T10:40:32;48.00;17.90
62575;DHT22;53112;45.602;11.904;2022-07-05T10:43:00;48.70;17.60
62575;DHT22;53112;45.602;11.904;2022-07-05T10:45:38;48.20;17.30
62575;DHT22;53112;45.602;11.904;2022-07-05T10:50:59;48.50;17.70
62575;DHT22;53112;45.602;11.904;2022-07-05T10:53:26;49.40;16.80
62575;DHT22;53112;45.602;11.904;2022-07-05T10:58:34;50.50;15.90
62575;DHT22;53112;45.602;11.904;2022-07-05T11:06:25;50.90;15.90
62575;DHT22;53112;45.602;11.904;2022-07-05T11:13:50;48.30;16.40
62575;DHT22;53112;45.602;11.904;2022-07-05T11:16:24;49.10;15.90
62575;DHT22;53112;45.602;11.904;2022-07-05T11:18:52;49.70;16.20
62575;DHT22;53112;45.602;11.904;2022-07-05T11:21:22;51.00;15.90
62575;DHT22;53112;45.602;11.904;2022-07-05T11:23:49;50.40;16.10
62575;DHT22;53112;45.602;11.904;2022-07-05T11:26:18;50.10;16.10
62575;DHT22;53112;45.602;11.904;2022-07-05T11:28:46;50.50;15.40
62575;DHT22;53112;45.602;11.904;2022-07-05T11:31:39;51.50;15.20
62575;DHT22;53112;45.602;11.904;2022-07-05T11:34:13;51.20;15.20
62575;DHT22;53112;45.602;11.904;2022-07-05T11:36:39;50.80;15.30
62575;DHT22;53112;45.602;11.904;2022-07-05T11:39:18;51.00;15.50
62575;DHT22;53112;45.602;11.904;2022-07-05T11:41:47;52.10;14.80
62575;DHT22;53112;45.602;11.904;2022-07-05T11:44:13;51.70;15.30
62575;DHT22;53112;45.602;11.904;2022-07-05T11:46:43;52.50;15.20
62575;DHT22;53112;45.602;11.904;2022-07-05T11:49:10;52.00;15.20
62575;DHT22;53112;45.602;11.904;2022-07-05T11:51:36;52.90;14.70
62575;DHT22;53112;45.602;11.904;2022-07-05T11:54:03;52.70;14.40
62575;DHT22;53112;45.602;11.904;2022-07-05T11:56:31;52.30;14.30
62575;DHT22;53112;45.602;11.904;2022-07-05T11:58:57;53.00;14.70
62575;DHT22;53112;45.602;11.904;2022-07-05T12:01:23;53.50;13.50
62575;DHT22;53112;45.602;11.904;2022-07-05T12:03:56;52.70;14.50
62575;DHT22;53112;45.602;11.904;2022-07-05T12:06:22;51.10;14.80
62575;DHT22;53112;45.602;11.904;2022-07-05T12:09:04;50.10;15.20
62575;DHT22;53112;45.602;11.904;2022-07-05T12:11:30;50.80;15.20
62575;DHT22;53112;45.602;11.904;2022-07-05T12:14:24;52.50;14.30
62575;DHT22;53112;45.602;11.904;2022-07-05T12:17:11;48.90;15.70
62575;DHT22;53112;45.602;11.904;2022-07-05T12:19:37;47.60;16.60
62575;DHT22;53112;45.602;11.904;2022-07-05T12:22:03;47.20;17.00
62575;DHT22;53112;45.602;11.904;2022-07-05T12:24:29;47.10;16.90
62575;DHT22;53112;45.602;11.904;2022-07-05T12:26:55;48.00;16.70
62575;DHT22;53112;45.602;11.904;2022-07-05T12:29:22;48.80;15.90
62575;DHT22;53112;45.602;11.904;2022-07-05T12:32:04;48.70;16.10
62575;DHT22;53112;45.602;11.904;2022-07-05T12:34:34;48.00;16.30
62575;DHT22;53112;45.602;11.904;2022-07-05T12:37:01;47.40;16.70
62575;DHT22;53112;45.602;11.904;2022-07-05T12:39:27;47.30;16.80
62575;DHT22;53112;45.602;11.904;2022-07-05T12:41:53;47.80;16.60
62575;DHT22;53112;45.602;11.904;2022-07-05T12:44:21;48.10;16.50
62575;DHT22;53112;45.602;11.904;2022-07-05T12:46:48;47.60;16.80
62575;DHT22;53112;45.602;11.904;2022-07-05T12:49:15;48.30;16.50
62575;DHT22;53112;45.602;11.904;2022-07-05T12:51:43;49.60;15.90
62575;DHT22;53112;45.602;11.904;2022-07-05T12:54:23;50.50;14.90
62575;DHT22;53112;45.602;11.904;2022-07-05T12:57:07;49.70;15.40
62575;DHT22;53112;45.602;11.904;2022-07-05T13:00:00;47.70;16.40
62575;DHT22;53112;45.602;11.904;2022-07-05T13:02:38;46.70;17.60
62575;DHT22;53112;45.602;11.904;2022-07-05T13:05:07;46.50;17.20
62575;DHT22;53112;45.602;11.904;2022-07-05T13:07:33;48.60;16.60
62575;DHT22;53112;45.602;11.904;2022-07-05T13:10:23;49.40;16.40
62575;DHT22;53112;45.602;11.904;2022-07-05T13:12:50;48.50;16.30
62575;DHT22;53112;45.602;11.904;2022-07-05T13:15:17;48.00;16.70
62575;DHT22;53112;45.602;11.904;2022-07-05T13:17:44;48.10;16.50
62575;DHT22;53112;45.602;11.904;2022-07-05T13:20:12;46.30;17.90
62575;DHT22;53112;45.602;11.904;2022-07-05T13:22:38;45.60;18.40
62575;DHT22;53112;45.602;11.904;2022-07-05T13:25:05;45.30;18.50
62575;DHT22;53112;45.602;11.904;2022-07-05T13:27:31;44.00;20.20
62575;DHT22;53112;45.602;11.904;2022-07-05T13:29:57;44.00;19.90
62575;DHT22;53112;45.602;11.904;2022-07-05T13:32:23;45.70;18.80
62575;DHT22;53112;45.602;11.904;2022-07-05T13:34:49;47.30;17.80
62575;DHT22;53112;45.602;11.904;2022-07-05T13:37:16;48.70;16.60
62575;DHT22;53112;45.602;11.904;2022-07-05T13:39:42;47.80;17.60
62575;DHT22;53112;45.602;11.904;2022-07-05T13:42:08;46.70;17.80
62575;DHT22;53112;45.602;11.904;2022-07-05T13:44:34;44.80;19.30
62575;DHT22;53112;45.602;11.904;2022-07-05T13:47:00;45.50;18.70
62575;DHT22;53112;45.602;11.904;2022-07-05T13:49:26;45.50;18.60
62575;DHT22;53112;45.602;11.904;2022-07-05T13:51:52;46.30;18.10
62575;DHT22;53112;45.602;11.904;2022-07-05T13:54:18;46.30;17.80
62575;DHT22;53112;45.602;11.904;2022-07-05T13:56:44;45.60;18.10
62575;DHT22;53112;45.602;11.904;2022-07-05T13:59:10;46.10;18.00
62575;DHT22;53112;45.602;11.904;2022-07-05T14:01:36;47.10;17.40
62575;DHT22;53112;45.602;11.904;2022-07-05T14:04:03;46.30;17.60
62575;DHT22;53112;45.602;11.904;2022-07-05T14:06:30;46.10;18.10
62575;DHT22;53112;45.602;11.904;2022-07-05T14:08:57;45.60;18.60
62575;DHT22;53112;45.602;11.904;2022-07-05T14:11:24;44.20;20.00
62575;DHT22;53112;45.602;11.904;2022-07-05T14:13:56;45.20;19.50
62575;DHT22;53112;45.602;11.904;2022-07-05T14:16:23;44.30;19.80
62575;DHT22;53112;45.602;11.904;2022-07-05T14:18:50;45.10;19.60
62575;DHT22;53112;45.602;11.904;2022-07-05T14:21:19;44.90;19.20
62575;DHT22;53112;45.602;11.904;2022-07-05T14:23:45;44.00;20.10
62575;DHT22;53112;45.602;11.904;2022-07-05T14:26:15;45.20;19.60
62575;DHT22;53112;45.602;11.904;2022-07-05T14:28:43;44.90;19.80
62575;DHT22;53112;45.602;11.904;2022-07-05T14:31:09;43.60;20.40
62575;DHT22;53112;45.602;11.904;2022-07-05T14:33:36;42.70;21.30
62575;DHT22;53112;45.602;11.904;2022-07-05T14:36:03;42.60;21.10
62575;DHT22;53112;45.602;11.904;2022-07-05T14:38:30;43.10;20.70
62575;DHT22;53112;45.602;11.904;2022-07-05T14:40:56;43.60;20.60
62575;DHT22;53112;45.602;11.904;2022-07-05T14:43:22;43.80;20.00
62575;DHT22;53112;45.602;11.904;2022-07-05T14:45:48;42.70;20.70
62575;DHT22;53112;45.602;11.904;2022-07-05T14:48:14;43.50;20.00
62575;DHT22;53112;45.602;11.904;2022-07-05T14:50:40;42.30;21.10
62575;DHT22;53112;45.602;11.904;2022-07-05T14:53:06;42.40;21.00
62575;DHT22;53112;45.602;11.904;2022-07-05T14:55:35;42.40;20.70
62575;DHT22;53112;45.602;11.904;2022-07-05T14:58:02;43.70;20.10
62575;DHT22;53112;45.602;11.904;2022-07-05T15:00:28;44.40;19.60
62575;DHT22;53112;45.602;11.904;2022-07-05T15:02:54;44.60;19.40
62575;DHT22;53112;45.602;11.904;2022-07-05T15:05:20;44.10;19.50
62575;DHT22;53112;45.602;11.904;2022-07-05T15:07:46;42.70;21.30
62575;DHT22;53112;45.602;11.904;2022-07-05T15:10:12;43.20;20.80
62575;DHT22;53112;45.602;11.904;2022-07-05T15:12:38;43.90;20.50
62575;DHT22;53112;45.602;11.904;2022-07-05T15:15:05;43.20;20.80
62575;DHT22;53112;45.602;11.904;2022-07-05T15:17:32;42.70;21.70
62575;DHT22;53112;45.602;11.904;2022-07-05T15:20:00;42.70;21.60
62575;DHT22;53112;45.602;11.904;2022-07-05T15:22:26;42.00;22.30
62575;DHT22;53112;45.602;11.904;2022-07-05T15:24:53;40.20;24.00
62575;DHT22;53112;45.602;11.904;2022-07-05T15:27:20;40.50;23.90
62575;DHT22;53112;45.602;11.904;2022-07-05T15:29:47;40.10;24.30
62575;DHT22;53112;45.602;11.904;2022-07-05T15:32:14;39.70;24.40
62575;DHT22;53112;45.602;11.904;2022-07-05T15:34:40;39.10;25.00
62575;DHT22;53112;45.602;11.904;2022-07-05T15:37:06;39.60;24.30
62575;DHT22;53112;45.602;11.904;2022-07-05T15:39:32;39.40;24.60
62575;DHT22;53112;45.602;11.904;2022-07-05T15:42:01;39.60;24.40
62575;DHT22;53112;45.602;11.904;2022-07-05T15:44:27;39.80;24.40
62575;DHT22;53112;45.602;11.904;2022-07-05T15:46:54;39.50;24.60
62575;DHT22;53112;45.602;11.904;2022-07-05T15:49:26;39.60;24.40
62575;DHT22;53112;45.602;11.904;2022-07-05T15:51:52;39.70;24.10